X  Zamknij Lotniskowe dane METAR     EHWO Woensdrecht Air Base
Temperatura
14°C Temperatura
10°C Punkt rosy
77% Wilgotność



Wiatr
13 KM/H
8 MPH
4 M/S
7 KTS



190°
S
Warunki bieżące

Pochmurno Pochmurno
Ciśnienie 1005.76 (hPa) - 29.7 (inHg)
Widoczność 6 (mil) - 9.7 (km)
Lotnisko
Kod lotniska EHWO

Położenie: Woensdrecht Air Base
Odległość: 32 (km)

Metar:
EHWO 140555Z AUTO 19007KT 140V250 9999 BKN018 OVC021 14/10 Q1006 WHT

Czas: 14-06-2024 07:55 CEST